sensor_id;sensor_type;location;lat;lon;timestamp;pressure;altitude;pressure_sealevel;temperature;humidity
5883;BME280;2967;51.488;6.618;2023-09-07T00:16:33;101446.03;;;19.66;100.00
5883;BME280;2967;51.488;6.618;2023-09-07T00:27:53;101450.84;;;19.53;100.00
5883;BME280;2967;51.488;6.618;2023-09-07T00:33:36;101692.69;;;20.95;100.00
5883;BME280;2967;51.488;6.618;2023-09-07T00:39:07;101399.41;;;19.38;100.00
5883;BME280;2967;51.488;6.618;2023-09-07T00:44:17;101630.53;;;20.79;100.00
5883;BME280;2967;51.488;6.618;2023-09-07T00:49:22;101537.22;;;20.05;100.00
5883;BME280;2967;51.488;6.618;2023-09-07T00:54:37;101642.88;;;20.63;100.00
5883;BME280;2967;51.488;6.618;2023-09-07T00:59:42;101506.50;;;19.79;100.00
5883;BME280;2967;51.488;6.618;2023-09-07T01:04:46;101675.97;;;20.54;100.00
5883;BME280;2967;51.488;6.618;2023-09-07T01:09:54;101662.69;;;20.62;100.00
5883;BME280;2967;51.488;6.618;2023-09-07T01:15:05;101516.56;;;19.77;100.00
5883;BME280;2967;51.488;6.618;2023-09-07T01:20:15;101661.53;;;20.64;100.00
5883;BME280;2967;51.488;6.618;2023-09-07T01:25:21;101644.84;;;20.51;100.00
5883;BME280;2967;51.488;6.618;2023-09-07T01:30:26;101645.56;;;20.44;100.00
5883;BME280;2967;51.488;6.618;2023-09-07T01:35:31;101651.63;;;20.46;100.00
5883;BME280;2967;51.488;6.618;2023-09-07T01:40:41;101650.94;;;20.44;100.00
5883;BME280;2967;51.488;6.618;2023-09-07T01:45:51;101645.41;;;20.36;100.00
5883;BME280;2967;51.488;6.618;2023-09-07T01:50:54;101477.75;;;19.23;100.00
5883;BME280;2967;51.488;6.618;2023-09-07T01:56:00;101367.72;;;18.55;100.00
5883;BME280;2967;51.488;6.618;2023-09-07T02:01:06;101643.97;;;20.13;100.00
5883;BME280;2967;51.488;6.618;2023-09-07T02:06:09;101639.44;;;20.04;100.00
5883;BME280;2967;51.488;6.618;2023-09-07T02:11:15;101645.41;;;20.07;100.00
5883;BME280;2967;51.488;6.618;2023-09-07T02:16:19;101486.47;;;19.15;100.00
5883;BME280;2967;51.488;6.618;2023-09-07T02:21:23;101642.78;;;19.96;100.00
5883;BME280;2967;51.488;6.618;2023-09-07T02:26:27;101636.84;;;19.93;100.00
5883;BME280;2967;51.488;6.618;2023-09-07T02:31:35;101437.78;;;18.71;100.00
5883;BME280;2967;51.488;6.618;2023-09-07T02:37:13;101640.34;;;19.74;100.00
5883;BME280;2967;51.488;6.618;2023-09-07T02:42:25;101399.22;;;18.33;100.00
5883;BME280;2967;51.488;6.618;2023-09-07T02:47:28;101637.59;;;19.55;100.00
5883;BME280;2967;51.488;6.618;2023-09-07T02:52:36;101634.34;;;19.52;100.00
5883;BME280;2967;51.488;6.618;2023-09-07T02:57:49;101635.84;;;19.45;100.00
5883;BME280;2967;51.488;6.618;2023-09-07T03:10:56;101280.47;;;17.42;100.00
5883;BME280;2967;51.488;6.618;2023-09-07T03:16:13;101481.66;;;18.50;100.00
5883;BME280;2967;51.488;6.618;2023-09-07T03:21:24;101260.72;;;17.02;100.00
5883;BME280;2967;51.488;6.618;2023-09-07T03:26:32;101567.56;;;18.98;100.00
5883;BME280;2967;51.488;6.618;2023-09-07T03:31:42;101479.19;;;18.37;100.00
5883;BME280;2967;51.488;6.618;2023-09-07T03:36:45;101571.16;;;18.88;100.00
5883;BME280;2967;51.488;6.618;2023-09-07T03:41:55;101631.09;;;19.28;100.00
5883;BME280;2967;51.488;6.618;2023-09-07T03:47:06;101479.78;;;18.20;100.00
5883;BME280;2967;51.488;6.618;2023-09-07T03:52:17;101549.50;;;18.50;100.00
5883;BME280;2967;51.488;6.618;2023-09-07T03:57:27;101636.75;;;19.04;100.00
5883;BME280;2967;51.488;6.618;2023-09-07T04:02:38;101649.59;;;19.01;100.00
5883;BME280;2967;51.488;6.618;2023-09-07T04:07:43;101585.88;;;18.53;100.00
5883;BME280;2967;51.488;6.618;2023-09-07T04:12:47;101651.09;;;18.94;100.00
5883;BME280;2967;51.488;6.618;2023-09-07T04:18:26;101652.78;;;18.95;100.00
5883;BME280;2967;51.488;6.618;2023-09-07T04:23:52;101642.25;;;19.03;100.00
5883;BME280;2967;51.488;6.618;2023-09-07T04:28:55;101640.56;;;19.02;100.00
5883;BME280;2967;51.488;6.618;2023-09-07T04:34:11;101635.19;;;19.02;100.00
5883;BME280;2967;51.488;6.618;2023-09-07T04:39:17;101618.00;;;18.84;100.00
5883;BME280;2967;51.488;6.618;2023-09-07T04:44:27;101508.03;;;18.13;100.00
5883;BME280;2967;51.488;6.618;2023-09-07T04:50:06;101322.09;;;16.93;100.00
5883;BME280;2967;51.488;6.618;2023-09-07T04:55:12;101640.88;;;18.88;100.00
5883;BME280;2967;51.488;6.618;2023-09-07T05:00:16;101640.53;;;18.81;100.00
5883;BME280;2967;51.488;6.618;2023-09-07T05:05:20;101564.66;;;18.40;100.00
5883;BME280;2967;51.488;6.618;2023-09-07T05:10:25;101650.75;;;18.87;100.00
5883;BME280;2967;51.488;6.618;2023-09-07T05:15:47;101618.13;;;18.62;100.00
5883;BME280;2967;51.488;6.618;2023-09-07T05:20:54;101657.50;;;18.82;100.00
5883;BME280;2967;51.488;6.618;2023-09-07T05:25:57;101665.53;;;18.82;100.00
5883;BME280;2967;51.488;6.618;2023-09-07T05:31:01;101651.03;;;18.84;100.00
5883;BME280;2967;51.488;6.618;2023-09-07T05:36:07;101669.47;;;18.98;100.00
5883;BME280;2967;51.488;6.618;2023-09-07T05:41:12;101670.44;;;18.97;100.00
5883;BME280;2967;51.488;6.618;2023-09-07T05:46:14;101643.72;;;18.86;100.00
5883;BME280;2967;51.488;6.618;2023-09-07T05:51:19;101673.19;;;19.07;100.00
5883;BME280;2967;51.488;6.618;2023-09-07T05:56:22;101661.41;;;18.98;100.00
5883;BME280;2967;51.488;6.618;2023-09-07T06:01:26;101657.47;;;19.02;100.00
5883;BME280;2967;51.488;6.618;2023-09-07T06:06:30;101689.56;;;19.24;100.00
5883;BME280;2967;51.488;6.618;2023-09-07T06:11:33;101690.00;;;19.29;100.00
5883;BME280;2967;51.488;6.618;2023-09-07T06:16:40;101693.72;;;19.38;100.00
5883;BME280;2967;51.488;6.618;2023-09-07T06:21:47;101700.13;;;19.46;100.00
5883;BME280;2967;51.488;6.618;2023-09-07T06:26:50;101689.25;;;19.48;100.00
5883;BME280;2967;51.488;6.618;2023-09-07T06:31:53;101703.75;;;19.66;100.00
5883;BME280;2967;51.488;6.618;2023-09-07T06:36:58;101709.19;;;19.85;100.00
5883;BME280;2967;51.488;6.618;2023-09-07T06:42:03;101704.78;;;20.04;100.00
5883;BME280;2967;51.488;6.618;2023-09-07T06:47:13;101707.34;;;20.25;100.00
5883;BME280;2967;51.488;6.618;2023-09-07T06:52:18;101705.41;;;20.46;100.00
5883;BME280;2967;51.488;6.618;2023-09-07T06:57:21;101702.16;;;20.71;100.00
5883;BME280;2967;51.488;6.618;2023-09-07T07:02:26;101703.88;;;20.91;100.00
5883;BME280;2967;51.488;6.618;2023-09-07T07:07:30;101700.19;;;21.01;100.00
5883;BME280;2967;51.488;6.618;2023-09-07T07:12:33;101717.25;;;21.29;100.00
5883;BME280;2967;51.488;6.618;2023-09-07T07:17:40;101697.16;;;21.33;100.00
5883;BME280;2967;51.488;6.618;2023-09-07T07:22:45;101704.75;;;21.47;100.00
5883;BME280;2967;51.488;6.618;2023-09-07T07:27:50;101723.00;;;21.72;100.00
5883;BME280;2967;51.488;6.618;2023-09-07T07:32:53;101676.63;;;21.68;100.00
5883;BME280;2967;51.488;6.618;2023-09-07T07:37:58;101673.09;;;21.67;100.00
5883;BME280;2967;51.488;6.618;2023-09-07T07:43:01;101720.59;;;21.95;100.00
5883;BME280;2967;51.488;6.618;2023-09-07T07:48:05;101728.78;;;22.03;100.00
5883;BME280;2967;51.488;6.618;2023-09-07T07:53:11;101732.41;;;22.12;100.00
5883;BME280;2967;51.488;6.618;2023-09-07T07:58:16;101735.06;;;22.21;100.00
5883;BME280;2967;51.488;6.618;2023-09-07T08:03:20;101727.78;;;22.31;100.00
5883;BME280;2967;51.488;6.618;2023-09-07T08:08:25;101702.78;;;22.29;100.00
5883;BME280;2967;51.488;6.618;2023-09-07T08:13:28;101677.16;;;22.25;100.00
5883;BME280;2967;51.488;6.618;2023-09-07T08:18:33;101681.16;;;22.39;100.00
5883;BME280;2967;51.488;6.618;2023-09-07T08:23:39;101685.91;;;22.54;100.00
5883;BME280;2967;51.488;6.618;2023-09-07T08:28:44;101695.00;;;22.71;100.00
5883;BME280;2967;51.488;6.618;2023-09-07T08:33:50;101710.91;;;22.99;100.00
5883;BME280;2967;51.488;6.618;2023-09-07T08:38:54;101706.53;;;23.16;100.00
5883;BME280;2967;51.488;6.618;2023-09-07T08:43:57;101703.09;;;23.31;100.00
5883;BME280;2967;51.488;6.618;2023-09-07T08:49:00;101696.22;;;23.37;100.00
5883;BME280;2967;51.488;6.618;2023-09-07T08:54:07;101682.72;;;23.37;100.00
5883;BME280;2967;51.488;6.618;2023-09-07T08:59:11;101691.09;;;23.59;100.00
5883;BME280;2967;51.488;6.618;2023-09-07T09:04:15;101698.94;;;23.70;100.00
5883;BME280;2967;51.488;6.618;2023-09-07T09:09:24;101703.75;;;23.84;100.00
5883;BME280;2967;51.488;6.618;2023-09-07T09:14:30;101700.25;;;23.92;100.00
5883;BME280;2967;51.488;6.618;2023-09-07T09:19:33;101700.44;;;23.98;100.00
5883;BME280;2967;51.488;6.618;2023-09-07T09:24:38;101700.66;;;24.13;100.00
5883;BME280;2967;51.488;6.618;2023-09-07T09:29:41;101700.16;;;24.17;100.00
5883;BME280;2967;51.488;6.618;2023-09-07T09:34:44;101689.53;;;24.24;100.00
5883;BME280;2967;51.488;6.618;2023-09-07T09:39:50;101660.81;;;24.31;95.58
5883;BME280;2967;51.488;6.618;2023-09-07T09:44:56;101684.25;;;24.56;96.75
5883;BME280;2967;51.488;6.618;2023-09-07T09:50:00;101552.75;;;23.89;95.53
5883;BME280;2967;51.488;6.618;2023-09-07T09:55:08;101685.09;;;24.72;96.07
5883;BME280;2967;51.488;6.618;2023-09-07T10:00:15;101675.44;;;24.85;92.57
5883;BME280;2967;51.488;6.618;2023-09-07T10:05:28;101671.88;;;24.93;91.74
5883;BME280;2967;51.488;6.618;2023-09-07T10:10:35;101622.13;;;24.78;90.96
5883;BME280;2967;51.488;6.618;2023-09-07T10:15:40;101573.97;;;24.66;92.37
5883;BME280;2967;51.488;6.618;2023-09-07T10:20:48;101600.31;;;24.87;92.20
5883;BME280;2967;51.488;6.618;2023-09-07T10:25:53;101617.72;;;25.01;92.47
5883;BME280;2967;51.488;6.618;2023-09-07T10:30:58;101607.91;;;25.00;92.97
5883;BME280;2967;51.488;6.618;2023-09-07T10:36:02;101560.75;;;24.78;86.40
5883;BME280;2967;51.488;6.618;2023-09-07T10:41:07;101637.81;;;25.38;89.29
5883;BME280;2967;51.488;6.618;2023-09-07T10:46:11;101635.94;;;25.39;87.27
5883;BME280;2967;51.488;6.618;2023-09-07T10:51:14;101590.44;;;25.18;85.46
5883;BME280;2967;51.488;6.618;2023-09-07T10:56:18;101639.97;;;25.51;87.93
5883;BME280;2967;51.488;6.618;2023-09-07T11:01:20;101630.31;;;25.56;89.82
5883;BME280;2967;51.488;6.618;2023-09-07T11:06:23;101559.63;;;25.27;88.27
5883;BME280;2967;51.488;6.618;2023-09-07T11:11:31;101624.22;;;25.93;83.48
5883;BME280;2967;51.488;6.618;2023-09-07T11:16:34;101621.06;;;26.12;82.65
5883;BME280;2967;51.488;6.618;2023-09-07T11:21:37;101632.06;;;26.41;84.37
5883;BME280;2967;51.488;6.618;2023-09-07T11:26:42;101617.00;;;26.61;81.86
5883;BME280;2967;51.488;6.618;2023-09-07T11:31:45;101593.34;;;26.69;83.97
5883;BME280;2967;51.488;6.618;2023-09-07T11:36:48;101599.84;;;26.97;81.55
5883;BME280;2967;51.488;6.618;2023-09-07T11:41:53;101598.97;;;27.19;80.26
5883;BME280;2967;51.488;6.618;2023-09-07T11:46:56;101601.31;;;27.37;80.23
5883;BME280;2967;51.488;6.618;2023-09-07T11:51:59;101588.09;;;27.48;79.46
5883;BME280;2967;51.488;6.618;2023-09-07T11:57:04;101601.47;;;27.78;79.01
5883;BME280;2967;51.488;6.618;2023-09-07T12:02:07;101580.78;;;27.98;85.63
5883;BME280;2967;51.488;6.618;2023-09-07T12:07:12;101543.84;;;27.89;82.65
5883;BME280;2967;51.488;6.618;2023-09-07T12:12:17;101584.03;;;28.29;76.77
5883;BME280;2967;51.488;6.618;2023-09-07T12:17:19;101575.47;;;28.47;78.51
5883;BME280;2967;51.488;6.618;2023-09-07T12:22:25;101565.34;;;28.68;79.53
5883;BME280;2967;51.488;6.618;2023-09-07T12:27:29;101565.06;;;28.84;75.30
5883;BME280;2967;51.488;6.618;2023-09-07T12:32:44;101549.47;;;28.99;77.54
5883;BME280;2967;51.488;6.618;2023-09-07T12:37:47;101538.28;;;29.15;76.10
5883;BME280;2967;51.488;6.618;2023-09-07T12:42:52;101558.34;;;29.48;79.23
5883;BME280;2967;51.488;6.618;2023-09-07T12:47:54;101554.25;;;29.65;71.60
5883;BME280;2967;51.488;6.618;2023-09-07T12:52:59;101551.19;;;29.88;73.76
5883;BME280;2967;51.488;6.618;2023-09-07T12:58:11;101409.81;;;29.31;75.94
5883;BME280;2967;51.488;6.618;2023-09-07T13:03:34;101476.09;;;30.11;75.99
5883;BME280;2967;51.488;6.618;2023-09-07T13:08:58;101522.31;;;30.65;71.70
5883;BME280;2967;51.488;6.618;2023-09-07T13:14:15;101527.16;;;30.88;70.11
5883;BME280;2967;51.488;6.618;2023-09-07T13:19:19;101223.81;;;29.42;70.97
5883;BME280;2967;51.488;6.618;2023-09-07T13:24:45;101379.84;;;30.68;68.78
5883;BME280;2967;51.488;6.618;2023-09-07T13:30:28;101506.91;;;32.03;68.04
5883;BME280;2967;51.488;6.618;2023-09-07T13:35:31;101493.41;;;32.02;64.35
5883;BME280;2967;51.488;6.618;2023-09-07T13:40:33;101508.34;;;32.37;65.02
5883;BME280;2967;51.488;6.618;2023-09-07T13:45:38;101505.81;;;32.60;65.57
5883;BME280;2967;51.488;6.618;2023-09-07T13:50:44;101497.94;;;32.45;61.42
5883;BME280;2967;51.488;6.618;2023-09-07T13:55:47;101494.72;;;32.30;62.26
5883;BME280;2967;51.488;6.618;2023-09-07T14:01:04;101480.13;;;32.05;63.82
5883;BME280;2967;51.488;6.618;2023-09-07T14:06:15;101373.47;;;31.30;62.57
5883;BME280;2967;51.488;6.618;2023-09-07T14:12:54;101492.91;;;31.87;63.19
5883;BME280;2967;51.488;6.618;2023-09-07T14:17:58;101492.44;;;31.52;62.18
5883;BME280;2967;51.488;6.618;2023-09-07T14:23:03;101478.50;;;31.23;61.18
5883;BME280;2967;51.488;6.618;2023-09-07T14:28:07;101480.16;;;31.11;62.96
5883;BME280;2967;51.488;6.618;2023-09-07T14:33:13;101466.38;;;30.80;65.89
5883;BME280;2967;51.488;6.618;2023-09-07T14:38:18;101374.88;;;30.19;64.81
5883;BME280;2967;51.488;6.618;2023-09-07T14:43:24;101396.09;;;30.17;65.24
5883;BME280;2967;51.488;6.618;2023-09-07T14:48:41;101478.19;;;30.42;65.61
5883;BME280;2967;51.488;6.618;2023-09-07T14:54:53;101480.72;;;30.11;66.73
5883;BME280;2967;51.488;6.618;2023-09-07T15:01:25;101182.97;;;27.96;67.05
5883;BME280;2967;51.488;6.618;2023-09-07T15:07:20;101392.09;;;29.01;69.05
5883;BME280;2967;51.488;6.618;2023-09-07T15:13:00;101460.28;;;29.21;69.24
5883;BME280;2967;51.488;6.618;2023-09-07T15:19:03;101291.00;;;28.02;69.07
5883;BME280;2967;51.488;6.618;2023-09-07T15:24:08;101430.03;;;28.69;71.06
5883;BME280;2967;51.488;6.618;2023-09-07T15:29:15;101409.81;;;28.50;71.59
5883;BME280;2967;51.488;6.618;2023-09-07T15:34:18;101434.56;;;28.55;70.68
5883;BME280;2967;51.488;6.618;2023-09-07T15:39:24;101435.63;;;28.61;71.92
5883;BME280;2967;51.488;6.618;2023-09-07T15:44:31;101369.06;;;28.08;71.30
5883;BME280;2967;51.488;6.618;2023-09-07T15:49:42;101428.44;;;28.47;72.29
5883;BME280;2967;51.488;6.618;2023-09-07T15:54:52;101435.06;;;28.38;73.53
5883;BME280;2967;51.488;6.618;2023-09-07T16:00:18;101125.19;;;26.51;77.10
5883;BME280;2967;51.488;6.618;2023-09-07T16:05:32;101311.34;;;27.58;79.64
5883;BME280;2967;51.488;6.618;2023-09-07T16:10:36;101349.13;;;27.74;80.18
5883;BME280;2967;51.488;6.618;2023-09-07T16:15:42;101349.91;;;27.68;81.25
5883;BME280;2967;51.488;6.618;2023-09-07T16:21:15;101386.03;;;27.83;80.76
5883;BME280;2967;51.488;6.618;2023-09-07T16:26:23;101375.50;;;27.73;82.36
5883;BME280;2967;51.488;6.618;2023-09-07T16:32:07;101408.69;;;27.90;84.14
5883;BME280;2967;51.488;6.618;2023-09-07T16:37:14;101409.47;;;27.84;82.99
5883;BME280;2967;51.488;6.618;2023-09-07T16:42:19;101372.19;;;27.57;83.24
5883;BME280;2967;51.488;6.618;2023-09-07T16:47:23;101410.38;;;27.70;83.65
5883;BME280;2967;51.488;6.618;2023-09-07T16:52:26;101409.25;;;27.64;85.10
5883;BME280;2967;51.488;6.618;2023-09-07T16:57:34;101356.81;;;27.29;83.94
5883;BME280;2967;51.488;6.618;2023-09-07T17:02:37;101416.25;;;27.53;82.57
5883;BME280;2967;51.488;6.618;2023-09-07T17:07:40;101307.97;;;26.79;84.00
5883;BME280;2967;51.488;6.618;2023-09-07T17:12:55;101403.41;;;27.26;87.10
5883;BME280;2967;51.488;6.618;2023-09-07T17:17:58;101413.56;;;27.17;89.36
5883;BME280;2967;51.488;6.618;2023-09-07T17:23:01;101383.31;;;26.91;92.38
5883;BME280;2967;51.488;6.618;2023-09-07T17:28:13;101421.81;;;26.95;88.77
5883;BME280;2967;51.488;6.618;2023-09-07T17:33:19;101418.72;;;26.83;91.44
5883;BME280;2967;51.488;6.618;2023-09-07T17:38:30;101322.03;;;26.10;92.87
5883;BME280;2967;51.488;6.618;2023-09-07T17:43:47;101299.66;;;25.93;94.18
5883;BME280;2967;51.488;6.618;2023-09-07T17:49:07;101379.13;;;26.31;94.10
5883;BME280;2967;51.488;6.618;2023-09-07T17:54:10;101424.31;;;26.38;96.00
5883;BME280;2967;51.488;6.618;2023-09-07T17:59:14;101446.03;;;26.38;99.34
5883;BME280;2967;51.488;6.618;2023-09-07T18:04:17;101434.50;;;26.22;97.24
5883;BME280;2967;51.488;6.618;2023-09-07T18:09:20;101458.22;;;26.20;93.97
5883;BME280;2967;51.488;6.618;2023-09-07T18:14:33;101377.72;;;25.61;95.13
5883;BME280;2967;51.488;6.618;2023-09-07T18:19:41;101455.91;;;25.94;95.48
5883;BME280;2967;51.488;6.618;2023-09-07T18:24:43;101443.28;;;25.79;95.55
5883;BME280;2967;51.488;6.618;2023-09-07T18:29:48;101420.81;;;25.48;99.86
5883;BME280;2967;51.488;6.618;2023-09-07T18:34:52;101446.25;;;25.47;97.83
5883;BME280;2967;51.488;6.618;2023-09-07T18:39:57;101345.03;;;24.79;98.59
5883;BME280;2967;51.488;6.618;2023-09-07T18:45:03;101405.44;;;25.10;98.91
5883;BME280;2967;51.488;6.618;2023-09-07T18:50:08;101450.06;;;25.30;98.27
5883;BME280;2967;51.488;6.618;2023-09-07T18:55:17;101369.59;;;24.77;97.30
5883;BME280;2967;51.488;6.618;2023-09-07T19:00:22;101274.13;;;24.15;98.52
5883;BME280;2967;51.488;6.618;2023-09-07T19:05:29;101293.59;;;24.10;100.00
5883;BME280;2967;51.488;6.618;2023-09-07T19:10:32;101341.53;;;24.24;100.00
5883;BME280;2967;51.488;6.618;2023-09-07T19:15:38;101125.97;;;22.77;100.00
5883;BME280;2967;51.488;6.618;2023-09-07T19:20:41;101287.72;;;23.75;96.52
5883;BME280;2967;51.488;6.618;2023-09-07T19:25:44;101468.72;;;24.78;93.57
5883;BME280;2967;51.488;6.618;2023-09-07T19:30:49;101408.13;;;24.25;92.30
5883;BME280;2967;51.488;6.618;2023-09-07T19:35:52;101419.22;;;24.46;88.76
5883;BME280;2967;51.488;6.618;2023-09-07T19:40:57;101441.88;;;24.61;88.62
5883;BME280;2967;51.488;6.618;2023-09-07T19:46:02;101478.66;;;24.86;87.40
5883;BME280;2967;51.488;6.618;2023-09-07T19:51:11;101484.09;;;24.86;86.53
5883;BME280;2967;51.488;6.618;2023-09-07T19:56:16;101478.00;;;24.84;86.89
5883;BME280;2967;51.488;6.618;2023-09-07T20:01:22;101439.16;;;24.53;85.31
5883;BME280;2967;51.488;6.618;2023-09-07T20:06:25;101419.88;;;24.48;83.95
5883;BME280;2967;51.488;6.618;2023-09-07T20:11:29;101374.50;;;24.20;83.87
5883;BME280;2967;51.488;6.618;2023-09-07T20:16:36;101483.91;;;24.87;83.59
5883;BME280;2967;51.488;6.618;2023-09-07T20:21:39;101487.97;;;24.83;83.25
5883;BME280;2967;51.488;6.618;2023-09-07T20:26:42;101445.28;;;24.55;84.01
5883;BME280;2967;51.488;6.618;2023-09-07T20:31:46;101489.72;;;24.76;83.73
5883;BME280;2967;51.488;6.618;2023-09-07T20:36:50;101481.91;;;24.73;83.63
5883;BME280;2967;51.488;6.618;2023-09-07T20:41:56;101479.41;;;24.72;83.09
5883;BME280;2967;51.488;6.618;2023-09-07T20:47:01;101463.84;;;24.50;83.66
5883;BME280;2967;51.488;6.618;2023-09-07T20:52:04;101464.69;;;24.51;83.86
5883;BME280;2967;51.488;6.618;2023-09-07T20:57:07;101470.28;;;24.49;82.73
5883;BME280;2967;51.488;6.618;2023-09-07T21:02:12;101436.69;;;24.28;82.75
5883;BME280;2967;51.488;6.618;2023-09-07T21:07:15;101466.44;;;24.36;83.64
5883;BME280;2967;51.488;6.618;2023-09-07T21:17:52;101460.34;;;24.26;83.80
5883;BME280;2967;51.488;6.618;2023-09-07T21:22:57;101427.09;;;24.01;84.23
5883;BME280;2967;51.488;6.618;2023-09-07T21:28:09;101272.19;;;23.05;84.12
5883;BME280;2967;51.488;6.618;2023-09-07T21:33:13;101455.13;;;24.08;84.57
5883;BME280;2967;51.488;6.618;2023-09-07T21:38:29;101404.25;;;23.72;84.32
5883;BME280;2967;51.488;6.618;2023-09-07T21:43:40;101492.47;;;24.21;84.80
5883;BME280;2967;51.488;6.618;2023-09-07T21:48:45;101498.38;;;24.16;84.88
5883;BME280;2967;51.488;6.618;2023-09-07T21:53:55;101418.63;;;23.72;84.61
5883;BME280;2967;51.488;6.618;2023-09-07T21:59:01;101476.75;;;24.00;84.80
5883;BME280;2967;51.488;6.618;2023-09-07T22:04:05;101469.31;;;23.86;86.54
5883;BME280;2967;51.488;6.618;2023-09-07T22:09:09;101491.28;;;23.91;85.95
5883;BME280;2967;51.488;6.618;2023-09-07T22:14:12;101382.25;;;23.19;86.57
5883;BME280;2967;51.488;6.618;2023-09-07T22:19:17;101422.44;;;23.38;86.88
5883;BME280;2967;51.488;6.618;2023-09-07T22:24:21;101201.25;;;21.97;88.08
5883;BME280;2967;51.488;6.618;2023-09-07T22:29:25;101423.75;;;23.18;89.90
5883;BME280;2967;51.488;6.618;2023-09-07T22:34:31;101494.56;;;23.53;89.61
5883;BME280;2967;51.488;6.618;2023-09-07T22:39:35;101454.97;;;23.28;89.77
5883;BME280;2967;51.488;6.618;2023-09-07T22:44:40;101464.59;;;23.23;91.88
5883;BME280;2967;51.488;6.618;2023-09-07T22:49:45;101388.22;;;22.55;93.03
5883;BME280;2967;51.488;6.618;2023-09-07T22:54:47;101403.72;;;22.53;93.82
5883;BME280;2967;51.488;6.618;2023-09-07T22:59:50;101468.09;;;22.82;94.75
5883;BME280;2967;51.488;6.618;2023-09-07T23:04:55;101465.72;;;22.79;95.33
5883;BME280;2967;51.488;6.618;2023-09-07T23:09:58;101289.72;;;21.59;96.65
5883;BME280;2967;51.488;6.618;2023-09-07T23:15:04;101470.09;;;22.46;97.46
5883;BME280;2967;51.488;6.618;2023-09-07T23:20:09;101380.50;;;21.84;98.69
5883;BME280;2967;51.488;6.618;2023-09-07T23:25:12;101476.28;;;22.21;100.00
5883;BME280;2967;51.488;6.618;2023-09-07T23:30:15;101470.63;;;22.07;100.00
5883;BME280;2967;51.488;6.618;2023-09-07T23:35:19;101485.78;;;22.08;100.00
5883;BME280;2967;51.488;6.618;2023-09-07T23:40:23;101479.00;;;22.04;100.00
5883;BME280;2967;51.488;6.618;2023-09-07T23:45:26;101476.53;;;21.93;100.00
5883;BME280;2967;51.488;6.618;2023-09-07T23:50:30;101468.16;;;21.78;100.00
5883;BME280;2967;51.488;6.618;2023-09-07T23:55:33;101415.75;;;21.38;100.00
